createdAt,value
2023-02-21T00:00:42.031Z,998.00
2023-02-21T00:05:46.217Z,998.15
2023-02-21T00:10:50.327Z,998.04
2023-02-21T00:15:54.474Z,998.05
2023-02-21T00:20:58.629Z,998.03
2023-02-21T00:26:02.816Z,998.02
2023-02-21T00:31:07.104Z,998.01
2023-02-21T00:36:11.143Z,998.00
2023-02-21T00:41:15.585Z,997.97
2023-02-21T00:46:19.481Z,997.86
2023-02-21T00:51:23.590Z,997.80
2023-02-21T00:56:27.794Z,997.83
2023-02-21T01:01:31.951Z,997.77
2023-02-21T01:06:36.084Z,997.62
2023-02-21T01:11:40.261Z,997.57
2023-02-21T01:21:48.623Z,997.44
2023-02-21T01:26:50.880Z,997.40
2023-02-21T01:31:54.994Z,997.26
2023-02-21T01:36:57.309Z,997.19
2023-02-21T01:42:01.452Z,997.17
2023-02-21T01:47:05.651Z,997.16
2023-02-21T01:52:09.779Z,997.18
2023-02-21T01:57:13.930Z,997.08
2023-02-21T02:02:18.105Z,996.96
2023-02-21T02:07:22.250Z,996.75
2023-02-21T02:12:26.449Z,996.83
2023-02-21T02:17:30.598Z,996.83
2023-02-21T02:22:34.738Z,996.78
2023-02-21T02:27:38.939Z,996.79
2023-02-21T02:32:43.089Z,996.75
2023-02-21T02:37:47.235Z,996.66
2023-02-21T02:42:51.410Z,996.52
2023-02-21T02:47:55.553Z,996.55
2023-02-21T02:52:59.722Z,996.45
2023-02-21T02:58:03.904Z,996.29
2023-02-21T03:03:08.042Z,996.24
2023-02-21T03:08:12.379Z,996.18
2023-02-21T03:18:20.575Z,996.19
2023-02-21T03:23:24.708Z,996.15
2023-02-21T03:28:26.997Z,996.24
2023-02-21T03:33:31.152Z,996.14
2023-02-21T03:38:35.292Z,996.11
2023-02-21T03:43:39.438Z,996.00
2023-02-21T03:48:43.629Z,996.01
2023-02-21T03:53:47.803Z,995.94
2023-02-21T03:58:51.956Z,996.05
2023-02-21T04:03:56.120Z,996.00
2023-02-21T04:09:00.300Z,995.94
2023-02-21T04:14:04.474Z,995.92
2023-02-21T04:19:08.651Z,996.01
2023-02-21T04:24:12.779Z,996.04
2023-02-21T04:29:16.911Z,996.03
2023-02-21T04:34:21.069Z,995.96
2023-02-21T04:39:25.271Z,995.96
2023-02-21T04:44:29.420Z,995.89
2023-02-21T04:49:33.600Z,995.89
2023-02-21T04:54:37.739Z,995.78
2023-02-21T04:59:41.909Z,995.69
2023-02-21T05:04:46.053Z,995.75
2023-02-21T05:09:50.241Z,995.66
2023-02-21T05:14:52.502Z,995.75
2023-02-21T05:19:56.687Z,995.75
2023-02-21T05:24:58.913Z,995.79
2023-02-21T05:30:03.307Z,995.84
2023-02-21T05:35:05.456Z,995.81
2023-02-21T05:40:09.558Z,995.99
2023-02-21T05:45:13.708Z,995.93
2023-02-21T05:50:17.848Z,995.97
2023-02-21T05:55:22.011Z,995.87
2023-02-21T06:00:26.188Z,995.78
2023-02-21T06:05:30.358Z,995.86
2023-02-21T06:10:34.486Z,995.78
2023-02-21T06:15:38.683Z,995.78
2023-02-21T06:20:42.807Z,995.81
2023-02-21T06:25:47.009Z,995.68
2023-02-21T06:30:51.329Z,995.64
2023-02-21T06:35:55.346Z,995.72
2023-02-21T06:40:59.472Z,995.78
2023-02-21T06:46:03.766Z,995.73
2023-02-21T06:51:07.797Z,995.71
2023-02-21T06:56:11.949Z,995.84
2023-02-21T07:01:16.562Z,995.82
2023-02-21T07:06:20.298Z,995.79
2023-02-21T07:11:24.428Z,995.82
2023-02-21T07:16:28.602Z,995.76
2023-02-21T07:21:30.944Z,995.71
2023-02-21T07:26:35.099Z,995.82
2023-02-21T07:31:37.382Z,995.78
2023-02-21T07:36:41.464Z,995.78
2023-02-21T07:41:45.661Z,995.76
2023-02-21T07:46:49.900Z,995.72
2023-02-21T07:51:53.981Z,995.70
2023-02-21T07:56:58.155Z,995.66
2023-02-21T08:02:02.335Z,995.75
2023-02-21T08:07:06.482Z,995.95
2023-02-21T08:12:11.631Z,995.94
2023-02-21T08:17:14.790Z,995.91
2023-02-21T08:22:18.981Z,995.98
2023-02-21T08:27:23.119Z,996.01
2023-02-21T08:32:27.325Z,995.85
2023-02-21T08:37:31.450Z,996.00
2023-02-21T08:42:35.580Z,995.91
2023-02-21T08:47:39.752Z,995.94
2023-02-21T08:52:43.940Z,995.99
2023-02-21T08:57:48.080Z,995.97
2023-02-21T09:02:52.261Z,995.93
2023-02-21T09:07:56.397Z,996.00
2023-02-21T09:13:00.596Z,995.97
2023-02-21T09:18:02.862Z,995.90
2023-02-21T09:23:07.011Z,995.92
2023-02-21T09:28:09.312Z,995.88
2023-02-21T09:33:13.434Z,995.97
2023-02-21T09:38:17.632Z,995.82
2023-02-21T09:43:21.772Z,995.84
2023-02-21T09:48:26.457Z,995.84
2023-02-21T09:53:30.090Z,995.85
2023-02-21T09:58:34.228Z,995.85
2023-02-21T10:03:38.436Z,995.92
2023-02-21T10:08:42.573Z,995.82
2023-02-21T10:13:46.717Z,995.86
2023-02-21T10:18:50.894Z,995.88
2023-02-21T10:23:55.081Z,995.85
2023-02-21T10:28:59.250Z,995.89
2023-02-21T10:34:03.418Z,995.89
2023-02-21T10:39:07.550Z,995.88
2023-02-21T10:44:11.718Z,995.89
2023-02-21T10:49:15.871Z,995.91
2023-02-21T10:54:20.004Z,995.94
2023-02-21T10:59:24.256Z,995.98
2023-02-21T11:04:28.337Z,995.94
2023-02-21T11:09:32.497Z,995.90
2023-02-21T11:14:34.781Z,995.90
2023-02-21T11:19:38.974Z,995.95
2023-02-21T11:24:41.253Z,995.86
2023-02-21T11:29:45.349Z,995.75
2023-02-21T11:34:49.591Z,995.62
2023-02-21T11:39:53.729Z,995.68
2023-02-21T11:44:57.862Z,995.83
2023-02-21T11:50:02.070Z,996.13
2023-02-21T11:55:06.187Z,996.48
2023-02-21T12:00:10.346Z,996.90
2023-02-21T12:05:14.525Z,997.23
2023-02-21T12:10:18.645Z,997.63
2023-02-21T12:15:22.877Z,997.86
2023-02-21T12:20:27.005Z,998.24
2023-02-21T12:25:31.158Z,998.41
2023-02-21T12:30:35.348Z,998.42
2023-02-21T12:35:39.630Z,998.45
2023-02-21T12:40:43.667Z,998.39
2023-02-21T12:45:47.794Z,998.28
2023-02-21T12:50:51.987Z,998.03
2023-02-21T12:55:56.153Z,997.98
2023-02-21T13:01:00.254Z,997.83
2023-02-21T13:06:04.445Z,997.74
2023-02-21T13:11:06.716Z,997.65
2023-02-21T13:16:10.916Z,997.46
2023-02-21T13:21:15.400Z,997.44
2023-02-21T13:26:19.198Z,997.42
2023-02-21T13:31:23.419Z,997.26
2023-02-21T13:36:27.568Z,997.25
2023-02-21T13:41:31.682Z,997.19
2023-02-21T13:46:35.868Z,997.16
2023-02-21T13:51:39.980Z,997.10
2023-02-21T13:56:44.166Z,996.97
2023-02-21T14:01:48.330Z,996.93
2023-02-21T14:06:52.494Z,996.92
2023-02-21T14:11:56.669Z,996.88
2023-02-21T14:17:00.826Z,996.81
2023-02-21T14:22:04.972Z,996.67
2023-02-21T14:27:12.010Z,996.64
2023-02-21T14:32:13.416Z,996.63
2023-02-21T14:37:17.433Z,996.58
2023-02-21T14:42:21.652Z,996.55
2023-02-21T14:47:25.808Z,996.43
2023-02-21T14:52:29.918Z,996.42
2023-02-21T14:57:32.208Z,996.36
2023-02-21T15:02:36.370Z,996.41
2023-02-21T15:07:40.519Z,996.36
2023-02-21T15:12:44.874Z,996.32
2023-02-21T15:17:48.870Z,996.25
2023-02-21T15:22:53.029Z,996.14
2023-02-21T15:27:57.154Z,996.18
2023-02-21T15:33:01.364Z,996.03
2023-02-21T15:38:05.543Z,996.06
2023-02-21T15:43:09.689Z,995.90
2023-02-21T15:48:13.823Z,995.84
2023-02-21T15:53:18.029Z,995.67
2023-02-21T15:58:22.150Z,995.64
2023-02-21T16:03:26.362Z,995.61
2023-02-21T16:08:28.599Z,995.57
2023-02-21T16:13:32.760Z,995.52
2023-02-21T16:18:36.902Z,995.51
2023-02-21T16:23:41.075Z,995.44
2023-02-21T16:28:45.206Z,995.42
2023-02-21T16:33:49.380Z,995.30
2023-02-21T16:38:53.548Z,995.27
2023-02-21T16:43:55.838Z,995.22
2023-02-21T16:49:00.089Z,995.17
2023-02-21T16:54:02.273Z,995.08
2023-02-21T16:59:06.444Z,995.13
2023-02-21T17:04:08.818Z,995.07
2023-02-21T17:09:12.862Z,995.11
2023-02-21T17:14:17.019Z,995.10
2023-02-21T17:19:21.170Z,995.04
2023-02-21T17:24:25.372Z,994.94
2023-02-21T17:29:29.506Z,994.93
2023-02-21T17:34:33.689Z,995.01
2023-02-21T17:39:37.825Z,994.92
2023-02-21T17:44:42.037Z,994.93
2023-02-21T17:49:46.174Z,994.94
2023-02-21T17:54:50.325Z,994.79
2023-02-21T17:59:54.467Z,994.85
2023-02-21T18:04:58.645Z,994.79
2023-02-21T18:10:02.809Z,994.78
2023-02-21T18:15:06.981Z,994.78
2023-02-21T18:20:11.134Z,994.65
2023-02-21T18:25:15.338Z,994.59
2023-02-21T18:30:19.497Z,994.58
2023-02-21T18:35:23.639Z,994.51
2023-02-21T18:40:27.818Z,994.38
2023-02-21T18:45:31.992Z,994.45
2023-02-21T18:50:34.235Z,994.39
2023-02-21T18:55:38.396Z,994.31
2023-02-21T19:00:40.707Z,994.20
2023-02-21T19:05:44.824Z,994.06
2023-02-21T19:10:48.962Z,994.06
2023-02-21T19:15:53.162Z,994.04
2023-02-21T19:20:57.321Z,994.00
2023-02-21T19:26:01.456Z,994.03
2023-02-21T19:31:05.633Z,993.96
2023-02-21T19:36:09.816Z,994.05
2023-02-21T19:41:14.103Z,994.06
2023-02-21T19:46:18.121Z,994.09
2023-02-21T19:51:22.290Z,994.08
2023-02-21T19:56:26.436Z,994.08
2023-02-21T20:01:30.655Z,994.22
2023-02-21T20:06:34.776Z,994.18
2023-02-21T20:11:38.960Z,994.25
2023-02-21T20:16:43.136Z,994.22
2023-02-21T20:21:47.244Z,994.25
2023-02-21T20:26:51.406Z,994.27
2023-02-21T20:31:55.597Z,994.33
2023-02-21T20:36:59.708Z,994.34
2023-02-21T20:42:03.869Z,994.27
2023-02-21T20:47:06.163Z,994.33
2023-02-21T20:52:10.311Z,994.33
2023-02-21T20:57:14.480Z,994.36
2023-02-21T21:02:16.736Z,994.30
2023-02-21T21:07:20.908Z,994.28
2023-02-21T21:12:25.077Z,994.29
2023-02-21T21:17:29.226Z,994.32
2023-02-21T21:22:33.440Z,994.28
2023-02-21T21:27:37.682Z,994.23
2023-02-21T21:32:41.758Z,994.20
2023-02-21T21:37:45.935Z,994.11
2023-02-21T21:42:50.086Z,994.17
2023-02-21T21:47:54.203Z,994.06
2023-02-21T21:52:58.498Z,993.96
2023-02-21T21:58:02.546Z,993.82
2023-02-21T22:03:06.723Z,993.80
2023-02-21T22:08:10.870Z,993.68
2023-02-21T22:13:15.047Z,993.62
2023-02-21T22:18:19.235Z,993.59
2023-02-21T22:23:23.361Z,993.47
2023-02-21T22:28:27.656Z,993.56
2023-02-21T22:33:31.681Z,993.58
2023-02-21T22:38:35.848Z,993.52
2023-02-21T22:43:40.008Z,993.42
2023-02-21T22:48:42.289Z,993.44
2023-02-21T22:53:46.453Z,993.36
2023-02-21T22:58:48.736Z,993.29
2023-02-21T23:03:52.860Z,993.19
2023-02-21T23:08:57.048Z,993.13
2023-02-21T23:14:01.234Z,992.93
2023-02-21T23:19:05.352Z,992.80
2023-02-21T23:24:09.499Z,992.69
2023-02-21T23:29:13.848Z,992.70
2023-02-21T23:34:17.855Z,992.62
2023-02-21T23:39:22.032Z,992.61
2023-02-21T23:44:26.170Z,992.51
2023-02-21T23:49:30.343Z,992.45
2023-02-21T23:54:34.528Z,992.43
2023-02-21T23:59:38.664Z,992.29
